sensor_id;sensor_type;location;lat;lon;timestamp;P1;durP1;ratioP1;P2;durP2;ratioP2
51913;SDS011;37940;53.002;6.930;2022-12-07T00:01:20;13.73;;;4.90;;
51913;SDS011;37940;53.002;6.930;2022-12-07T00:03:48;20.10;;;5.20;;
51913;SDS011;37940;53.002;6.930;2022-12-07T00:06:15;12.65;;;4.65;;
51913;SDS011;37940;53.002;6.930;2022-12-07T00:08:42;15.15;;;3.95;;
51913;SDS011;37940;53.002;6.930;2022-12-07T00:11:09;14.88;;;5.05;;
51913;SDS011;37940;53.002;6.930;2022-12-07T00:13:40;17.67;;;4.32;;
51913;SDS011;37940;53.002;6.930;2022-12-07T00:16:07;14.88;;;4.80;;
51913;SDS011;37940;53.002;6.930;2022-12-07T00:18:33;17.27;;;4.47;;
51913;SDS011;37940;53.002;6.930;2022-12-07T00:21:00;13.00;;;3.97;;
51913;SDS011;37940;53.002;6.930;2022-12-07T00:23:27;18.00;;;4.93;;
51913;SDS011;37940;53.002;6.930;2022-12-07T00:25:53;16.13;;;4.20;;
51913;SDS011;37940;53.002;6.930;2022-12-07T00:28:18;12.40;;;3.70;;
51913;SDS011;37940;53.002;6.930;2022-12-07T00:30:44;13.23;;;4.55;;
51913;SDS011;37940;53.002;6.930;2022-12-07T00:33:10;15.63;;;3.75;;
51913;SDS011;37940;53.002;6.930;2022-12-07T00:35:35;12.13;;;3.55;;
51913;SDS011;37940;53.002;6.930;2022-12-07T00:38:01;10.90;;;3.25;;
51913;SDS011;37940;53.002;6.930;2022-12-07T00:40:26;15.70;;;3.67;;
51913;SDS011;37940;53.002;6.930;2022-12-07T00:42:52;14.30;;;3.50;;
51913;SDS011;37940;53.002;6.930;2022-12-07T00:45:18;15.63;;;2.60;;
51913;SDS011;37940;53.002;6.930;2022-12-07T00:47:43;13.32;;;2.60;;
51913;SDS011;37940;53.002;6.930;2022-12-07T00:50:09;8.95;;;2.35;;
51913;SDS011;37940;53.002;6.930;2022-12-07T00:52:35;11.15;;;2.55;;
51913;SDS011;37940;53.002;6.930;2022-12-07T00:55:01;12.20;;;2.90;;
51913;SDS011;37940;53.002;6.930;2022-12-07T00:57:26;14.05;;;2.35;;
51913;SDS011;37940;53.002;6.930;2022-12-07T00:59:52;8.13;;;1.83;;
51913;SDS011;37940;53.002;6.930;2022-12-07T01:02:22;8.10;;;1.85;;
51913;SDS011;37940;53.002;6.930;2022-12-07T01:04:48;8.68;;;2.00;;
51913;SDS011;37940;53.002;6.930;2022-12-07T01:07:14;12.18;;;1.90;;
51913;SDS011;37940;53.002;6.930;2022-12-07T01:09:40;10.57;;;2.08;;
51913;SDS011;37940;53.002;6.930;2022-12-07T01:12:05;10.32;;;2.05;;
51913;SDS011;37940;53.002;6.930;2022-12-07T01:14:31;11.57;;;1.98;;
51913;SDS011;37940;53.002;6.930;2022-12-07T01:16:57;12.70;;;1.90;;
51913;SDS011;37940;53.002;6.930;2022-12-07T01:19:22;13.45;;;1.90;;
51913;SDS011;37940;53.002;6.930;2022-12-07T01:21:48;14.05;;;2.00;;
51913;SDS011;37940;53.002;6.930;2022-12-07T01:24:14;10.13;;;1.95;;
51913;SDS011;37940;53.002;6.930;2022-12-07T01:26:39;10.50;;;1.65;;
51913;SDS011;37940;53.002;6.930;2022-12-07T01:29:06;13.35;;;2.28;;
51913;SDS011;37940;53.002;6.930;2022-12-07T01:31:32;6.30;;;1.70;;
51913;SDS011;37940;53.002;6.930;2022-12-07T01:33:59;12.95;;;2.42;;
51913;SDS011;37940;53.002;6.930;2022-12-07T01:36:29;11.80;;;1.80;;
51913;SDS011;37940;53.002;6.930;2022-12-07T01:38:57;8.55;;;2.13;;
51913;SDS011;37940;53.002;6.930;2022-12-07T01:41:25;7.75;;;1.80;;
51913;SDS011;37940;53.002;6.930;2022-12-07T01:46:34;12.27;;;2.20;;
51913;SDS011;37940;53.002;6.930;2022-12-07T01:49:00;9.68;;;1.95;;
51913;SDS011;37940;53.002;6.930;2022-12-07T01:51:26;6.50;;;1.83;;
51913;SDS011;37940;53.002;6.930;2022-12-07T01:53:53;14.35;;;1.75;;
51913;SDS011;37940;53.002;6.930;2022-12-07T01:56:20;11.05;;;1.77;;
51913;SDS011;37940;53.002;6.930;2022-12-07T01:58:49;14.32;;;2.20;;
51913;SDS011;37940;53.002;6.930;2022-12-07T02:01:16;11.00;;;2.03;;
51913;SDS011;37940;53.002;6.930;2022-12-07T02:03:42;21.38;;;2.35;;
51913;SDS011;37940;53.002;6.930;2022-12-07T02:06:10;11.48;;;1.60;;
51913;SDS011;37940;53.002;6.930;2022-12-07T02:08:38;7.28;;;1.65;;
51913;SDS011;37940;53.002;6.930;2022-12-07T02:11:05;9.75;;;1.88;;
51913;SDS011;37940;53.002;6.930;2022-12-07T02:13:34;7.63;;;1.58;;
51913;SDS011;37940;53.002;6.930;2022-12-07T02:24:30;17.65;;;2.05;;
51913;SDS011;37940;53.002;6.930;2022-12-07T02:29:45;9.00;;;1.70;;
51913;SDS011;37940;53.002;6.930;2022-12-07T02:32:25;11.10;;;2.00;;
51913;SDS011;37940;53.002;6.930;2022-12-07T02:35:05;9.60;;;1.80;;
51913;SDS011;37940;53.002;6.930;2022-12-07T02:40:34;14.20;;;1.65;;
51913;SDS011;37940;53.002;6.930;2022-12-07T02:43:38;8.95;;;1.40;;
51913;SDS011;37940;53.002;6.930;2022-12-07T02:46:01;9.80;;;1.50;;
51913;SDS011;37940;53.002;6.930;2022-12-07T02:48:31;9.48;;;1.50;;
51913;SDS011;37940;53.002;6.930;2022-12-07T02:50:58;9.73;;;1.10;;
51913;SDS011;37940;53.002;6.930;2022-12-07T02:53:34;9.98;;;1.40;;
51913;SDS011;37940;53.002;6.930;2022-12-07T02:58:58;7.55;;;1.70;;
51913;SDS011;37940;53.002;6.930;2022-12-07T03:10:14;11.73;;;2.08;;
51913;SDS011;37940;53.002;6.930;2022-12-07T03:15:46;11.13;;;1.70;;
51913;SDS011;37940;53.002;6.930;2022-12-07T03:18:16;13.20;;;1.92;;
51913;SDS011;37940;53.002;6.930;2022-12-07T03:20:45;11.25;;;1.70;;
51913;SDS011;37940;53.002;6.930;2022-12-07T03:23:15;8.65;;;1.80;;
51913;SDS011;37940;53.002;6.930;2022-12-07T03:25:47;11.38;;;1.92;;
51913;SDS011;37940;53.002;6.930;2022-12-07T03:28:18;16.42;;;1.83;;
51913;SDS011;37940;53.002;6.930;2022-12-07T03:30:59;15.43;;;2.35;;
51913;SDS011;37940;53.002;6.930;2022-12-07T03:33:28;12.18;;;1.58;;
51913;SDS011;37940;53.002;6.930;2022-12-07T03:36:16;11.80;;;1.65;;
51913;SDS011;37940;53.002;6.930;2022-12-07T03:39:13;12.02;;;1.65;;
51913;SDS011;37940;53.002;6.930;2022-12-07T03:41:45;12.80;;;2.55;;
51913;SDS011;37940;53.002;6.930;2022-12-07T03:44:14;11.00;;;1.52;;
51913;SDS011;37940;53.002;6.930;2022-12-07T03:49:25;10.95;;;1.65;;
51913;SDS011;37940;53.002;6.930;2022-12-07T03:55:04;9.27;;;1.63;;
51913;SDS011;37940;53.002;6.930;2022-12-07T03:57:53;9.18;;;1.67;;
51913;SDS011;37940;53.002;6.930;2022-12-07T04:00:21;9.50;;;1.60;;
51913;SDS011;37940;53.002;6.930;2022-12-07T04:02:47;9.75;;;1.33;;
51913;SDS011;37940;53.002;6.930;2022-12-07T04:05:17;9.85;;;1.48;;
51913;SDS011;37940;53.002;6.930;2022-12-07T04:07:43;10.93;;;1.30;;
51913;SDS011;37940;53.002;6.930;2022-12-07T04:10:08;8.43;;;1.42;;
51913;SDS011;37940;53.002;6.930;2022-12-07T04:12:35;9.43;;;1.65;;
51913;SDS011;37940;53.002;6.930;2022-12-07T04:15:00;10.60;;;1.63;;
51913;SDS011;37940;53.002;6.930;2022-12-07T04:17:27;11.55;;;1.40;;
51913;SDS011;37940;53.002;6.930;2022-12-07T04:19:52;6.30;;;1.58;;
51913;SDS011;37940;53.002;6.930;2022-12-07T04:22:18;9.05;;;1.58;;
51913;SDS011;37940;53.002;6.930;2022-12-07T04:24:44;7.50;;;1.15;;
51913;SDS011;37940;53.002;6.930;2022-12-07T04:27:09;10.68;;;1.88;;
51913;SDS011;37940;53.002;6.930;2022-12-07T04:29:35;7.10;;;1.15;;
51913;SDS011;37940;53.002;6.930;2022-12-07T04:32:01;10.10;;;1.30;;
51913;SDS011;37940;53.002;6.930;2022-12-07T04:34:26;9.85;;;1.40;;
51913;SDS011;37940;53.002;6.930;2022-12-07T04:36:52;11.18;;;1.58;;
51913;SDS011;37940;53.002;6.930;2022-12-07T04:41:54;12.98;;;5.93;;
51913;SDS011;37940;53.002;6.930;2022-12-07T04:44:24;10.25;;;2.65;;
51913;SDS011;37940;53.002;6.930;2022-12-07T04:46:51;9.52;;;1.50;;
51913;SDS011;37940;53.002;6.930;2022-12-07T04:49:17;9.82;;;1.30;;
51913;SDS011;37940;53.002;6.930;2022-12-07T04:51:43;9.18;;;1.40;;
51913;SDS011;37940;53.002;6.930;2022-12-07T04:54:10;9.13;;;1.38;;
51913;SDS011;37940;53.002;6.930;2022-12-07T04:56:36;6.75;;;1.40;;
51913;SDS011;37940;53.002;6.930;2022-12-07T04:59:02;9.23;;;1.45;;
51913;SDS011;37940;53.002;6.930;2022-12-07T05:01:28;6.68;;;1.30;;
51913;SDS011;37940;53.002;6.930;2022-12-07T05:03:54;16.63;;;1.70;;
51913;SDS011;37940;53.002;6.930;2022-12-07T05:06:20;15.73;;;2.10;;
51913;SDS011;37940;53.002;6.930;2022-12-07T05:08:46;7.03;;;1.63;;
51913;SDS011;37940;53.002;6.930;2022-12-07T05:11:12;9.00;;;1.50;;
51913;SDS011;37940;53.002;6.930;2022-12-07T05:13:56;12.30;;;1.55;;
51913;SDS011;37940;53.002;6.930;2022-12-07T05:16:22;9.27;;;1.58;;
51913;SDS011;37940;53.002;6.930;2022-12-07T05:18:48;17.17;;;1.70;;
51913;SDS011;37940;53.002;6.930;2022-12-07T05:21:13;6.82;;;1.33;;
51913;SDS011;37940;53.002;6.930;2022-12-07T05:23:39;10.25;;;1.73;;
51913;SDS011;37940;53.002;6.930;2022-12-07T05:26:05;14.18;;;1.67;;
51913;SDS011;37940;53.002;6.930;2022-12-07T05:28:30;17.40;;;1.58;;
51913;SDS011;37940;53.002;6.930;2022-12-07T05:30:56;8.05;;;1.58;;
51913;SDS011;37940;53.002;6.930;2022-12-07T05:33:22;10.20;;;1.75;;
51913;SDS011;37940;53.002;6.930;2022-12-07T05:35:47;7.75;;;1.70;;
51913;SDS011;37940;53.002;6.930;2022-12-07T05:38:13;8.63;;;1.70;;
51913;SDS011;37940;53.002;6.930;2022-12-07T05:40:39;14.02;;;1.90;;
51913;SDS011;37940;53.002;6.930;2022-12-07T05:43:04;12.52;;;1.73;;
51913;SDS011;37940;53.002;6.930;2022-12-07T05:45:30;7.82;;;1.58;;
51913;SDS011;37940;53.002;6.930;2022-12-07T05:47:56;8.65;;;1.98;;
51913;SDS011;37940;53.002;6.930;2022-12-07T05:50:21;9.80;;;1.33;;
51913;SDS011;37940;53.002;6.930;2022-12-07T05:52:47;12.57;;;1.67;;
51913;SDS011;37940;53.002;6.930;2022-12-07T05:55:13;15.00;;;1.80;;
51913;SDS011;37940;53.002;6.930;2022-12-07T05:57:38;16.40;;;1.88;;
51913;SDS011;37940;53.002;6.930;2022-12-07T06:00:04;10.95;;;1.80;;
51913;SDS011;37940;53.002;6.930;2022-12-07T06:02:30;12.32;;;1.63;;
51913;SDS011;37940;53.002;6.930;2022-12-07T06:04:56;8.88;;;1.60;;
51913;SDS011;37940;53.002;6.930;2022-12-07T06:07:22;11.77;;;1.80;;
51913;SDS011;37940;53.002;6.930;2022-12-07T06:09:47;10.45;;;1.90;;
51913;SDS011;37940;53.002;6.930;2022-12-07T06:12:13;11.20;;;1.85;;
51913;SDS011;37940;53.002;6.930;2022-12-07T06:14:57;13.13;;;1.42;;
51913;SDS011;37940;53.002;6.930;2022-12-07T06:17:23;7.47;;;1.50;;
51913;SDS011;37940;53.002;6.930;2022-12-07T06:19:49;20.52;;;2.30;;
51913;SDS011;37940;53.002;6.930;2022-12-07T06:22:15;11.98;;;1.70;;
51913;SDS011;37940;53.002;6.930;2022-12-07T06:24:41;12.43;;;1.60;;
51913;SDS011;37940;53.002;6.930;2022-12-07T06:27:07;11.20;;;1.65;;
51913;SDS011;37940;53.002;6.930;2022-12-07T06:29:33;9.45;;;1.85;;
51913;SDS011;37940;53.002;6.930;2022-12-07T06:31:59;7.35;;;1.70;;
51913;SDS011;37940;53.002;6.930;2022-12-07T06:34:25;12.68;;;1.65;;
51913;SDS011;37940;53.002;6.930;2022-12-07T06:36:51;8.98;;;1.60;;
51913;SDS011;37940;53.002;6.930;2022-12-07T06:39:19;7.63;;;1.50;;
51913;SDS011;37940;53.002;6.930;2022-12-07T06:41:46;11.10;;;2.42;;
51913;SDS011;37940;53.002;6.930;2022-12-07T06:44:12;16.85;;;2.40;;
51913;SDS011;37940;53.002;6.930;2022-12-07T06:46:37;13.55;;;1.70;;
51913;SDS011;37940;53.002;6.930;2022-12-07T06:49:04;12.07;;;2.13;;
51913;SDS011;37940;53.002;6.930;2022-12-07T06:51:30;15.52;;;1.52;;
51913;SDS011;37940;53.002;6.930;2022-12-07T06:53:56;10.10;;;1.65;;
51913;SDS011;37940;53.002;6.930;2022-12-07T06:56:22;11.52;;;1.90;;
51913;SDS011;37940;53.002;6.930;2022-12-07T06:58:48;9.73;;;1.73;;
51913;SDS011;37940;53.002;6.930;2022-12-07T07:01:15;25.73;;;2.25;;
51913;SDS011;37940;53.002;6.930;2022-12-07T07:03:42;9.75;;;1.85;;
51913;SDS011;37940;53.002;6.930;2022-12-07T07:06:09;14.65;;;1.88;;
51913;SDS011;37940;53.002;6.930;2022-12-07T07:08:36;15.10;;;2.10;;
51913;SDS011;37940;53.002;6.930;2022-12-07T07:11:03;8.73;;;1.95;;
51913;SDS011;37940;53.002;6.930;2022-12-07T07:13:29;11.48;;;1.92;;
51913;SDS011;37940;53.002;6.930;2022-12-07T07:15:55;8.95;;;2.05;;
51913;SDS011;37940;53.002;6.930;2022-12-07T07:18:20;13.27;;;1.80;;
51913;SDS011;37940;53.002;6.930;2022-12-07T07:20:46;11.80;;;1.83;;
51913;SDS011;37940;53.002;6.930;2022-12-07T07:23:12;12.00;;;1.90;;
51913;SDS011;37940;53.002;6.930;2022-12-07T07:25:38;10.00;;;1.50;;
51913;SDS011;37940;53.002;6.930;2022-12-07T07:28:04;15.88;;;2.40;;
51913;SDS011;37940;53.002;6.930;2022-12-07T07:30:30;18.08;;;2.22;;
51913;SDS011;37940;53.002;6.930;2022-12-07T07:32:56;16.25;;;2.30;;
51913;SDS011;37940;53.002;6.930;2022-12-07T07:35:23;12.15;;;2.03;;
51913;SDS011;37940;53.002;6.930;2022-12-07T07:37:49;13.35;;;2.38;;
51913;SDS011;37940;53.002;6.930;2022-12-07T07:40:15;14.98;;;2.35;;
51913;SDS011;37940;53.002;6.930;2022-12-07T07:42:41;9.32;;;2.28;;
51913;SDS011;37940;53.002;6.930;2022-12-07T07:45:07;9.75;;;1.85;;
51913;SDS011;37940;53.002;6.930;2022-12-07T07:47:34;10.95;;;1.70;;
51913;SDS011;37940;53.002;6.930;2022-12-07T07:50:00;11.32;;;1.85;;
51913;SDS011;37940;53.002;6.930;2022-12-07T07:52:25;12.27;;;2.10;;
51913;SDS011;37940;53.002;6.930;2022-12-07T07:54:51;10.57;;;1.70;;
51913;SDS011;37940;53.002;6.930;2022-12-07T07:57:17;10.35;;;2.28;;
51913;SDS011;37940;53.002;6.930;2022-12-07T07:59:43;5.55;;;1.42;;
51913;SDS011;37940;53.002;6.930;2022-12-07T08:02:12;10.07;;;1.58;;
51913;SDS011;37940;53.002;6.930;2022-12-07T08:04:40;11.95;;;1.50;;
51913;SDS011;37940;53.002;6.930;2022-12-07T08:07:06;5.50;;;1.20;;
51913;SDS011;37940;53.002;6.930;2022-12-07T08:09:32;10.52;;;1.38;;
51913;SDS011;37940;53.002;6.930;2022-12-07T08:11:57;11.90;;;1.70;;
51913;SDS011;37940;53.002;6.930;2022-12-07T08:14:24;8.80;;;1.65;;
51913;SDS011;37940;53.002;6.930;2022-12-07T08:16:49;8.10;;;1.38;;
51913;SDS011;37940;53.002;6.930;2022-12-07T08:19:15;6.90;;;1.27;;
51913;SDS011;37940;53.002;6.930;2022-12-07T08:21:41;5.13;;;1.38;;
51913;SDS011;37940;53.002;6.930;2022-12-07T08:24:07;7.20;;;1.50;;
51913;SDS011;37940;53.002;6.930;2022-12-07T08:26:33;14.07;;;1.95;;
51913;SDS011;37940;53.002;6.930;2022-12-07T08:28:59;11.38;;;1.60;;
51913;SDS011;37940;53.002;6.930;2022-12-07T08:31:24;8.90;;;1.60;;
51913;SDS011;37940;53.002;6.930;2022-12-07T08:33:50;11.13;;;1.60;;
51913;SDS011;37940;53.002;6.930;2022-12-07T08:36:16;5.63;;;1.38;;
51913;SDS011;37940;53.002;6.930;2022-12-07T08:38:42;8.93;;;1.65;;
51913;SDS011;37940;53.002;6.930;2022-12-07T08:41:09;8.38;;;1.48;;
51913;SDS011;37940;53.002;6.930;2022-12-07T08:43:35;6.18;;;1.40;;
51913;SDS011;37940;53.002;6.930;2022-12-07T08:46:18;9.90;;;1.75;;
51913;SDS011;37940;53.002;6.930;2022-12-07T08:48:58;12.57;;;1.60;;
51913;SDS011;37940;53.002;6.930;2022-12-07T08:51:30;6.63;;;1.50;;
51913;SDS011;37940;53.002;6.930;2022-12-07T08:53:56;8.75;;;1.40;;
51913;SDS011;37940;53.002;6.930;2022-12-07T08:56:26;9.82;;;1.50;;
51913;SDS011;37940;53.002;6.930;2022-12-07T08:58:52;9.10;;;1.75;;
51913;SDS011;37940;53.002;6.930;2022-12-07T09:01:18;12.27;;;1.90;;
51913;SDS011;37940;53.002;6.930;2022-12-07T09:03:44;13.82;;;1.88;;
51913;SDS011;37940;53.002;6.930;2022-12-07T09:06:09;13.05;;;1.85;;
51913;SDS011;37940;53.002;6.930;2022-12-07T09:08:39;15.75;;;2.17;;
51913;SDS011;37940;53.002;6.930;2022-12-07T09:11:10;13.65;;;2.10;;
51913;SDS011;37940;53.002;6.930;2022-12-07T09:13:36;9.88;;;2.08;;
51913;SDS011;37940;53.002;6.930;2022-12-07T09:16:02;14.45;;;2.10;;
51913;SDS011;37940;53.002;6.930;2022-12-07T09:18:28;9.13;;;1.73;;
51913;SDS011;37940;53.002;6.930;2022-12-07T09:20:53;12.38;;;1.80;;
51913;SDS011;37940;53.002;6.930;2022-12-07T09:23:19;15.57;;;2.20;;
51913;SDS011;37940;53.002;6.930;2022-12-07T09:25:45;8.52;;;1.95;;
51913;SDS011;37940;53.002;6.930;2022-12-07T09:28:10;16.58;;;2.42;;
51913;SDS011;37940;53.002;6.930;2022-12-07T09:30:36;13.20;;;2.55;;
51913;SDS011;37940;53.002;6.930;2022-12-07T09:33:02;10.00;;;1.83;;
51913;SDS011;37940;53.002;6.930;2022-12-07T09:35:27;17.10;;;2.10;;
51913;SDS011;37940;53.002;6.930;2022-12-07T09:37:53;9.73;;;2.10;;
51913;SDS011;37940;53.002;6.930;2022-12-07T09:40:20;10.30;;;2.00;;
51913;SDS011;37940;53.002;6.930;2022-12-07T09:42:48;10.60;;;2.25;;
51913;SDS011;37940;53.002;6.930;2022-12-07T09:45:21;12.82;;;1.92;;
51913;SDS011;37940;53.002;6.930;2022-12-07T09:47:49;18.55;;;2.72;;
51913;SDS011;37940;53.002;6.930;2022-12-07T09:50:16;11.02;;;2.03;;
51913;SDS011;37940;53.002;6.930;2022-12-07T09:52:46;12.40;;;1.90;;
51913;SDS011;37940;53.002;6.930;2022-12-07T09:55:15;12.07;;;1.90;;
51913;SDS011;37940;53.002;6.930;2022-12-07T10:00:16;10.68;;;2.03;;
51913;SDS011;37940;53.002;6.930;2022-12-07T10:02:46;11.75;;;2.10;;
51913;SDS011;37940;53.002;6.930;2022-12-07T10:05:22;12.63;;;1.88;;
51913;SDS011;37940;53.002;6.930;2022-12-07T10:07:54;8.05;;;2.10;;
51913;SDS011;37940;53.002;6.930;2022-12-07T10:10:29;8.55;;;2.03;;
51913;SDS011;37940;53.002;6.930;2022-12-07T10:12:59;14.30;;;2.28;;
51913;SDS011;37940;53.002;6.930;2022-12-07T10:18:19;10.32;;;1.90;;
51913;SDS011;37940;53.002;6.930;2022-12-07T10:23:35;8.30;;;1.90;;
51913;SDS011;37940;53.002;6.930;2022-12-07T10:28:53;8.65;;;2.08;;
51913;SDS011;37940;53.002;6.930;2022-12-07T10:31:20;8.07;;;1.88;;
51913;SDS011;37940;53.002;6.930;2022-12-07T10:33:49;14.20;;;2.15;;
51913;SDS011;37940;53.002;6.930;2022-12-07T10:36:27;8.95;;;1.65;;
51913;SDS011;37940;53.002;6.930;2022-12-07T10:39:16;9.10;;;1.90;;
51913;SDS011;37940;53.002;6.930;2022-12-07T10:41:54;13.88;;;2.33;;
51913;SDS011;37940;53.002;6.930;2022-12-07T10:44:26;15.20;;;2.50;;
51913;SDS011;37940;53.002;6.930;2022-12-07T11:03:41;8.82;;;1.73;;
51913;SDS011;37940;53.002;6.930;2022-12-07T11:06:33;8.30;;;1.90;;
51913;SDS011;37940;53.002;6.930;2022-12-07T11:14:28;9.95;;;1.50;;
51913;SDS011;37940;53.002;6.930;2022-12-07T11:17:12;5.17;;;1.30;;
51913;SDS011;37940;53.002;6.930;2022-12-07T11:25:26;5.78;;;1.40;;
51913;SDS011;37940;53.002;6.930;2022-12-07T11:28:03;7.43;;;1.45;;
51913;SDS011;37940;53.002;6.930;2022-12-07T11:33:29;8.00;;;1.52;;
51913;SDS011;37940;53.002;6.930;2022-12-07T11:41:46;10.55;;;1.63;;
51913;SDS011;37940;53.002;6.930;2022-12-07T11:47:18;6.65;;;1.50;;
51913;SDS011;37940;53.002;6.930;2022-12-07T11:53:19;7.18;;;1.67;;
51913;SDS011;37940;53.002;6.930;2022-12-07T11:58:40;10.20;;;1.70;;
51913;SDS011;37940;53.002;6.930;2022-12-07T12:06:38;6.40;;;1.48;;
51913;SDS011;37940;53.002;6.930;2022-12-07T12:09:15;9.32;;;1.48;;
51913;SDS011;37940;53.002;6.930;2022-12-07T12:22:46;6.78;;;1.40;;
51913;SDS011;37940;53.002;6.930;2022-12-07T12:25:26;3.50;;;1.15;;
51913;SDS011;37940;53.002;6.930;2022-12-07T12:27:55;3.45;;;0.80;;
51913;SDS011;37940;53.002;6.930;2022-12-07T12:30:33;4.15;;;0.90;;
51913;SDS011;37940;53.002;6.930;2022-12-07T12:33:12;2.33;;;0.73;;
51913;SDS011;37940;53.002;6.930;2022-12-07T12:46:59;4.68;;;1.05;;
51913;SDS011;37940;53.002;6.930;2022-12-07T12:49:40;4.65;;;1.33;;
51913;SDS011;37940;53.002;6.930;2022-12-07T12:54:57;5.30;;;1.40;;
51913;SDS011;37940;53.002;6.930;2022-12-07T12:57:37;5.90;;;1.30;;
51913;SDS011;37940;53.002;6.930;2022-12-07T13:00:15;6.60;;;1.50;;
51913;SDS011;37940;53.002;6.930;2022-12-07T13:02:54;5.30;;;1.25;;
51913;SDS011;37940;53.002;6.930;2022-12-07T13:05:27;7.10;;;1.52;;
51913;SDS011;37940;53.002;6.930;2022-12-07T13:08:02;8.65;;;1.77;;
51913;SDS011;37940;53.002;6.930;2022-12-07T13:10:38;6.35;;;1.40;;
51913;SDS011;37940;53.002;6.930;2022-12-07T13:15:43;10.60;;;1.80;;
51913;SDS011;37940;53.002;6.930;2022-12-07T13:28:47;12.88;;;2.00;;
51913;SDS011;37940;53.002;6.930;2022-12-07T13:34:02;9.52;;;2.10;;
51913;SDS011;37940;53.002;6.930;2022-12-07T13:36:30;11.45;;;2.30;;
51913;SDS011;37940;53.002;6.930;2022-12-07T13:39:19;9.60;;;1.85;;
51913;SDS011;37940;53.002;6.930;2022-12-07T13:41:55;13.02;;;2.10;;
51913;SDS011;37940;53.002;6.930;2022-12-07T13:44:26;8.63;;;1.83;;
51913;SDS011;37940;53.002;6.930;2022-12-07T13:49:37;7.53;;;1.60;;
51913;SDS011;37940;53.002;6.930;2022-12-07T13:57:35;5.00;;;1.10;;
51913;SDS011;37940;53.002;6.930;2022-12-07T14:00:03;3.50;;;1.00;;
51913;SDS011;37940;53.002;6.930;2022-12-07T14:02:32;6.20;;;1.13;;
51913;SDS011;37940;53.002;6.930;2022-12-07T14:07:48;3.08;;;0.88;;
51913;SDS011;37940;53.002;6.930;2022-12-07T14:10:23;3.40;;;0.60;;
51913;SDS011;37940;53.002;6.930;2022-12-07T14:12:51;5.88;;;1.25;;
51913;SDS011;37940;53.002;6.930;2022-12-07T14:15:21;2.40;;;0.70;;
51913;SDS011;37940;53.002;6.930;2022-12-07T14:17:49;4.03;;;1.17;;
51913;SDS011;37940;53.002;6.930;2022-12-07T14:23:01;2.47;;;0.80;;
51913;SDS011;37940;53.002;6.930;2022-12-07T14:25:44;3.42;;;1.10;;
51913;SDS011;37940;53.002;6.930;2022-12-07T14:28:27;3.83;;;1.00;;
51913;SDS011;37940;53.002;6.930;2022-12-07T14:30:58;5.68;;;1.30;;
51913;SDS011;37940;53.002;6.930;2022-12-07T14:33:24;7.97;;;1.92;;
51913;SDS011;37940;53.002;6.930;2022-12-07T14:35:50;3.20;;;1.50;;
51913;SDS011;37940;53.002;6.930;2022-12-07T14:38:23;6.53;;;1.85;;
51913;SDS011;37940;53.002;6.930;2022-12-07T14:40:51;4.38;;;1.15;;
51913;SDS011;37940;53.002;6.930;2022-12-07T14:43:18;6.85;;;1.20;;
51913;SDS011;37940;53.002;6.930;2022-12-07T14:45:44;6.03;;;0.88;;
51913;SDS011;37940;53.002;6.930;2022-12-07T14:48:11;5.13;;;1.20;;
51913;SDS011;37940;53.002;6.930;2022-12-07T14:50:41;4.82;;;1.00;;
51913;SDS011;37940;53.002;6.930;2022-12-07T14:53:12;4.38;;;0.88;;
51913;SDS011;37940;53.002;6.930;2022-12-07T14:55:40;5.15;;;1.02;;
51913;SDS011;37940;53.002;6.930;2022-12-07T14:58:10;2.78;;;0.77;;
51913;SDS011;37940;53.002;6.930;2022-12-07T15:00:41;4.60;;;1.02;;
51913;SDS011;37940;53.002;6.930;2022-12-07T15:03:07;4.50;;;0.80;;
51913;SDS011;37940;53.002;6.930;2022-12-07T15:05:33;3.08;;;1.38;;
51913;SDS011;37940;53.002;6.930;2022-12-07T15:07:59;7.63;;;1.02;;
51913;SDS011;37940;53.002;6.930;2022-12-07T15:10:26;3.88;;;0.88;;
51913;SDS011;37940;53.002;6.930;2022-12-07T15:12:57;7.07;;;1.42;;
51913;SDS011;37940;53.002;6.930;2022-12-07T15:15:43;3.75;;;1.10;;
51913;SDS011;37940;53.002;6.930;2022-12-07T15:18:09;4.97;;;1.00;;
51913;SDS011;37940;53.002;6.930;2022-12-07T15:20:34;6.07;;;1.00;;
51913;SDS011;37940;53.002;6.930;2022-12-07T15:23:00;3.45;;;1.00;;
51913;SDS011;37940;53.002;6.930;2022-12-07T15:28:23;3.88;;;1.35;;
51913;SDS011;37940;53.002;6.930;2022-12-07T15:30:48;4.47;;;1.30;;
51913;SDS011;37940;53.002;6.930;2022-12-07T15:33:14;6.10;;;1.02;;
51913;SDS011;37940;53.002;6.930;2022-12-07T15:35:43;3.53;;;1.10;;
51913;SDS011;37940;53.002;6.930;2022-12-07T15:38:10;5.00;;;1.13;;
51913;SDS011;37940;53.002;6.930;2022-12-07T15:40:36;5.78;;;1.40;;
51913;SDS011;37940;53.002;6.930;2022-12-07T15:43:02;4.10;;;1.00;;
51913;SDS011;37940;53.002;6.930;2022-12-07T15:45:28;9.75;;;1.10;;
51913;SDS011;37940;53.002;6.930;2022-12-07T15:47:54;2.13;;;0.82;;
51913;SDS011;37940;53.002;6.930;2022-12-07T15:50:20;8.27;;;1.13;;
51913;SDS011;37940;53.002;6.930;2022-12-07T15:52:47;4.18;;;0.88;;
51913;SDS011;37940;53.002;6.930;2022-12-07T15:55:13;2.30;;;0.77;;
51913;SDS011;37940;53.002;6.930;2022-12-07T15:57:39;3.70;;;0.95;;
51913;SDS011;37940;53.002;6.930;2022-12-07T16:00:05;5.93;;;0.80;;
51913;SDS011;37940;53.002;6.930;2022-12-07T16:02:34;5.32;;;0.80;;
51913;SDS011;37940;53.002;6.930;2022-12-07T16:05:01;3.70;;;0.85;;
51913;SDS011;37940;53.002;6.930;2022-12-07T16:07:26;3.53;;;1.10;;
51913;SDS011;37940;53.002;6.930;2022-12-07T16:09:52;6.13;;;1.23;;
51913;SDS011;37940;53.002;6.930;2022-12-07T16:12:18;4.97;;;1.30;;
51913;SDS011;37940;53.002;6.930;2022-12-07T16:14:43;3.97;;;1.17;;
51913;SDS011;37940;53.002;6.930;2022-12-07T16:17:09;4.40;;;1.30;;
51913;SDS011;37940;53.002;6.930;2022-12-07T16:19:36;5.15;;;1.17;;
51913;SDS011;37940;53.002;6.930;2022-12-07T16:22:03;3.03;;;1.30;;
51913;SDS011;37940;53.002;6.930;2022-12-07T16:24:29;5.35;;;1.23;;
51913;SDS011;37940;53.002;6.930;2022-12-07T16:26:56;4.00;;;1.30;;
51913;SDS011;37940;53.002;6.930;2022-12-07T16:29:22;5.57;;;1.42;;
51913;SDS011;37940;53.002;6.930;2022-12-07T16:31:48;5.50;;;1.65;;
51913;SDS011;37940;53.002;6.930;2022-12-07T16:34:15;5.78;;;1.73;;
51913;SDS011;37940;53.002;6.930;2022-12-07T16:36:42;5.88;;;1.55;;
51913;SDS011;37940;53.002;6.930;2022-12-07T16:39:08;8.05;;;1.70;;
51913;SDS011;37940;53.002;6.930;2022-12-07T16:41:34;7.00;;;1.75;;
51913;SDS011;37940;53.002;6.930;2022-12-07T16:44:06;5.20;;;1.70;;
51913;SDS011;37940;53.002;6.930;2022-12-07T16:46:37;5.88;;;1.90;;
51913;SDS011;37940;53.002;6.930;2022-12-07T16:49:03;6.57;;;1.85;;
51913;SDS011;37940;53.002;6.930;2022-12-07T16:51:30;9.38;;;2.15;;
51913;SDS011;37940;53.002;6.930;2022-12-07T16:53:56;7.72;;;2.05;;
51913;SDS011;37940;53.002;6.930;2022-12-07T16:56:22;4.55;;;1.90;;
51913;SDS011;37940;53.002;6.930;2022-12-07T16:58:48;5.75;;;2.08;;
51913;SDS011;37940;53.002;6.930;2022-12-07T17:01:15;9.50;;;1.95;;
51913;SDS011;37940;53.002;6.930;2022-12-07T17:03:43;14.75;;;4.18;;
51913;SDS011;37940;53.002;6.930;2022-12-07T17:06:19;24.85;;;14.43;;
51913;SDS011;37940;53.002;6.930;2022-12-07T17:08:47;12.63;;;4.68;;
51913;SDS011;37940;53.002;6.930;2022-12-07T17:11:15;8.20;;;2.92;;
51913;SDS011;37940;53.002;6.930;2022-12-07T17:13:42;7.28;;;1.60;;
51913;SDS011;37940;53.002;6.930;2022-12-07T17:16:27;4.32;;;1.52;;
51913;SDS011;37940;53.002;6.930;2022-12-07T17:18:53;2.78;;;1.20;;
51913;SDS011;37940;53.002;6.930;2022-12-07T17:21:19;4.32;;;1.35;;
51913;SDS011;37940;53.002;6.930;2022-12-07T17:23:45;9.93;;;1.58;;
51913;SDS011;37940;53.002;6.930;2022-12-07T17:26:16;5.80;;;1.50;;
51913;SDS011;37940;53.002;6.930;2022-12-07T17:28:47;3.28;;;1.30;;